sensor_id;sensor_type;location;lat;lon;timestamp;P1;durP1;ratioP1;P2;durP2;ratioP2
70560;SDS011;58109;53.570;10.084;2022-07-04T00:01:18;6.57;;;2.00;;
70560;SDS011;58109;53.570;10.084;2022-07-04T00:03:43;7.40;;;1.80;;
70560;SDS011;58109;53.570;10.084;2022-07-04T00:06:08;8.47;;;1.80;;
70560;SDS011;58109;53.570;10.084;2022-07-04T00:08:34;8.10;;;2.20;;
70560;SDS011;58109;53.570;10.084;2022-07-04T00:11:02;3.67;;;1.90;;
70560;SDS011;58109;53.570;10.084;2022-07-04T00:13:30;4.97;;;2.13;;
70560;SDS011;58109;53.570;10.084;2022-07-04T00:15:55;4.23;;;1.70;;
70560;SDS011;58109;53.570;10.084;2022-07-04T00:18:20;5.70;;;2.00;;
70560;SDS011;58109;53.570;10.084;2022-07-04T00:20:48;7.77;;;2.77;;
70560;SDS011;58109;53.570;10.084;2022-07-04T00:23:20;13.17;;;2.07;;
70560;SDS011;58109;53.570;10.084;2022-07-04T00:25:45;10.07;;;2.60;;
70560;SDS011;58109;53.570;10.084;2022-07-04T00:28:11;7.03;;;2.10;;
70560;SDS011;58109;53.570;10.084;2022-07-04T00:30:37;6.23;;;2.10;;
70560;SDS011;58109;53.570;10.084;2022-07-04T00:33:02;9.93;;;2.03;;
70560;SDS011;58109;53.570;10.084;2022-07-04T00:35:30;5.80;;;2.27;;
70560;SDS011;58109;53.570;10.084;2022-07-04T00:37:55;7.10;;;2.57;;
70560;SDS011;58109;53.570;10.084;2022-07-04T00:40:25;4.90;;;2.10;;
70560;SDS011;58109;53.570;10.084;2022-07-04T00:42:50;7.60;;;2.20;;
70560;SDS011;58109;53.570;10.084;2022-07-04T00:45:16;16.83;;;3.20;;
70560;SDS011;58109;53.570;10.084;2022-07-04T00:47:45;4.20;;;2.70;;
70560;SDS011;58109;53.570;10.084;2022-07-04T00:50:12;12.30;;;3.13;;
70560;SDS011;58109;53.570;10.084;2022-07-04T00:52:38;7.37;;;2.97;;
70560;SDS011;58109;53.570;10.084;2022-07-04T00:55:04;9.83;;;3.00;;
70560;SDS011;58109;53.570;10.084;2022-07-04T00:57:32;7.37;;;3.80;;
70560;SDS011;58109;53.570;10.084;2022-07-04T00:59:58;11.47;;;3.10;;
70560;SDS011;58109;53.570;10.084;2022-07-04T01:02:23;11.70;;;3.13;;
70560;SDS011;58109;53.570;10.084;2022-07-04T01:04:51;16.73;;;3.70;;
70560;SDS011;58109;53.570;10.084;2022-07-04T01:07:16;12.67;;;3.90;;
70560;SDS011;58109;53.570;10.084;2022-07-04T01:09:42;9.03;;;3.80;;
70560;SDS011;58109;53.570;10.084;2022-07-04T01:12:08;6.40;;;5.03;;
70560;SDS011;58109;53.570;10.084;2022-07-04T01:14:38;13.30;;;4.10;;
70560;SDS011;58109;53.570;10.084;2022-07-04T01:17:04;11.70;;;4.60;;
70560;SDS011;58109;53.570;10.084;2022-07-04T01:19:32;10.80;;;5.17;;
70560;SDS011;58109;53.570;10.084;2022-07-04T01:21:57;7.33;;;4.20;;
70560;SDS011;58109;53.570;10.084;2022-07-04T01:24:23;11.10;;;4.20;;
70560;SDS011;58109;53.570;10.084;2022-07-04T01:26:56;7.77;;;4.47;;
70560;SDS011;58109;53.570;10.084;2022-07-04T01:29:21;13.77;;;4.10;;
70560;SDS011;58109;53.570;10.084;2022-07-04T01:31:46;14.80;;;4.43;;
70560;SDS011;58109;53.570;10.084;2022-07-04T01:34:12;16.53;;;4.40;;
70560;SDS011;58109;53.570;10.084;2022-07-04T01:36:37;12.20;;;4.77;;
70560;SDS011;58109;53.570;10.084;2022-07-04T01:39:03;12.23;;;5.10;;
70560;SDS011;58109;53.570;10.084;2022-07-04T01:41:32;7.00;;;4.80;;
70560;SDS011;58109;53.570;10.084;2022-07-04T01:44:01;11.53;;;5.90;;
70560;SDS011;58109;53.570;10.084;2022-07-04T01:46:26;8.93;;;5.93;;
70560;SDS011;58109;53.570;10.084;2022-07-04T01:48:54;9.70;;;5.90;;
70560;SDS011;58109;53.570;10.084;2022-07-04T01:51:19;10.97;;;5.40;;
70560;SDS011;58109;53.570;10.084;2022-07-04T01:53:47;15.20;;;5.80;;
70560;SDS011;58109;53.570;10.084;2022-07-04T01:56:12;13.97;;;6.67;;
70560;SDS011;58109;53.570;10.084;2022-07-04T01:58:41;10.43;;;5.77;;
70560;SDS011;58109;53.570;10.084;2022-07-04T02:01:06;16.87;;;7.07;;
70560;SDS011;58109;53.570;10.084;2022-07-04T02:03:50;11.30;;;6.73;;
70560;SDS011;58109;53.570;10.084;2022-07-04T02:06:16;8.23;;;6.13;;
70560;SDS011;58109;53.570;10.084;2022-07-04T02:08:41;14.50;;;5.90;;
70560;SDS011;58109;53.570;10.084;2022-07-04T02:11:27;13.80;;;6.30;;
70560;SDS011;58109;53.570;10.084;2022-07-04T02:13:53;18.90;;;7.20;;
70560;SDS011;58109;53.570;10.084;2022-07-04T02:16:20;18.37;;;7.00;;
70560;SDS011;58109;53.570;10.084;2022-07-04T02:18:46;8.90;;;6.77;;
70560;SDS011;58109;53.570;10.084;2022-07-04T02:21:11;14.63;;;6.10;;
70560;SDS011;58109;53.570;10.084;2022-07-04T02:23:37;21.17;;;8.83;;
70560;SDS011;58109;53.570;10.084;2022-07-04T02:26:06;15.63;;;8.30;;
70560;SDS011;58109;53.570;10.084;2022-07-04T02:28:36;13.20;;;7.43;;
70560;SDS011;58109;53.570;10.084;2022-07-04T02:31:01;12.03;;;7.40;;
70560;SDS011;58109;53.570;10.084;2022-07-04T02:33:27;10.67;;;7.80;;
70560;SDS011;58109;53.570;10.084;2022-07-04T02:35:52;12.23;;;7.40;;
70560;SDS011;58109;53.570;10.084;2022-07-04T02:38:18;16.00;;;9.20;;
70560;SDS011;58109;53.570;10.084;2022-07-04T02:40:43;10.80;;;7.87;;
70560;SDS011;58109;53.570;10.084;2022-07-04T02:43:08;11.80;;;6.57;;
70560;SDS011;58109;53.570;10.084;2022-07-04T02:45:34;14.47;;;7.00;;
70560;SDS011;58109;53.570;10.084;2022-07-04T02:47:59;13.10;;;7.53;;
70560;SDS011;58109;53.570;10.084;2022-07-04T02:50:25;11.43;;;6.67;;
70560;SDS011;58109;53.570;10.084;2022-07-04T02:52:53;13.80;;;6.27;;
70560;SDS011;58109;53.570;10.084;2022-07-04T02:55:18;15.80;;;6.67;;
70560;SDS011;58109;53.570;10.084;2022-07-04T02:57:48;13.60;;;7.00;;
70560;SDS011;58109;53.570;10.084;2022-07-04T03:00:22;9.77;;;6.20;;
70560;SDS011;58109;53.570;10.084;2022-07-04T03:02:50;10.50;;;6.20;;
70560;SDS011;58109;53.570;10.084;2022-07-04T03:05:15;10.30;;;5.93;;
70560;SDS011;58109;53.570;10.084;2022-07-04T03:07:40;12.57;;;5.87;;
70560;SDS011;58109;53.570;10.084;2022-07-04T03:10:09;16.63;;;5.73;;
70560;SDS011;58109;53.570;10.084;2022-07-04T03:12:34;11.40;;;5.57;;
70560;SDS011;58109;53.570;10.084;2022-07-04T03:15:04;12.70;;;5.90;;
70560;SDS011;58109;53.570;10.084;2022-07-04T03:17:33;13.63;;;5.67;;
70560;SDS011;58109;53.570;10.084;2022-07-04T03:19:58;9.80;;;4.83;;
70560;SDS011;58109;53.570;10.084;2022-07-04T03:22:24;14.43;;;5.40;;
70560;SDS011;58109;53.570;10.084;2022-07-04T03:24:49;9.90;;;5.27;;
70560;SDS011;58109;53.570;10.084;2022-07-04T03:27:14;13.37;;;5.90;;
70560;SDS011;58109;53.570;10.084;2022-07-04T03:29:40;13.87;;;5.33;;
70560;SDS011;58109;53.570;10.084;2022-07-04T03:32:08;12.80;;;5.17;;
70560;SDS011;58109;53.570;10.084;2022-07-04T03:34:33;8.33;;;4.50;;
70560;SDS011;58109;53.570;10.084;2022-07-04T03:36:58;10.20;;;5.10;;
70560;SDS011;58109;53.570;10.084;2022-07-04T03:39:24;13.13;;;6.00;;
70560;SDS011;58109;53.570;10.084;2022-07-04T03:41:51;13.43;;;5.73;;
70560;SDS011;58109;53.570;10.084;2022-07-04T03:44:17;13.27;;;6.53;;
70560;SDS011;58109;53.570;10.084;2022-07-04T03:46:42;18.90;;;7.80;;
70560;SDS011;58109;53.570;10.084;2022-07-04T03:49:07;14.10;;;7.50;;
70560;SDS011;58109;53.570;10.084;2022-07-04T03:51:35;20.20;;;7.30;;
70560;SDS011;58109;53.570;10.084;2022-07-04T03:54:03;13.20;;;6.73;;
70560;SDS011;58109;53.570;10.084;2022-07-04T03:56:31;9.20;;;5.43;;
70560;SDS011;58109;53.570;10.084;2022-07-04T03:58:56;13.70;;;6.00;;
70560;SDS011;58109;53.570;10.084;2022-07-04T04:01:24;13.13;;;7.47;;
70560;SDS011;58109;53.570;10.084;2022-07-04T04:03:49;11.63;;;7.00;;
70560;SDS011;58109;53.570;10.084;2022-07-04T04:06:36;17.30;;;7.87;;
70560;SDS011;58109;53.570;10.084;2022-07-04T04:09:04;14.40;;;7.80;;
70560;SDS011;58109;53.570;10.084;2022-07-04T04:11:29;13.13;;;6.70;;
70560;SDS011;58109;53.570;10.084;2022-07-04T04:13:56;20.30;;;8.37;;
70560;SDS011;58109;53.570;10.084;2022-07-04T04:16:24;10.20;;;7.13;;
70560;SDS011;58109;53.570;10.084;2022-07-04T04:18:51;15.07;;;7.23;;
70560;SDS011;58109;53.570;10.084;2022-07-04T04:21:19;17.27;;;8.10;;
70560;SDS011;58109;53.570;10.084;2022-07-04T04:23:47;13.63;;;7.90;;
70560;SDS011;58109;53.570;10.084;2022-07-04T04:26:14;11.83;;;7.10;;
70560;SDS011;58109;53.570;10.084;2022-07-04T04:28:40;15.97;;;7.20;;
70560;SDS011;58109;53.570;10.084;2022-07-04T04:31:05;13.53;;;7.63;;
70560;SDS011;58109;53.570;10.084;2022-07-04T04:33:34;14.03;;;7.77;;
70560;SDS011;58109;53.570;10.084;2022-07-04T04:36:00;13.23;;;6.83;;
70560;SDS011;58109;53.570;10.084;2022-07-04T04:38:25;13.13;;;6.77;;
70560;SDS011;58109;53.570;10.084;2022-07-04T04:40:55;10.90;;;6.10;;
70560;SDS011;58109;53.570;10.084;2022-07-04T04:43:21;9.53;;;6.00;;
70560;SDS011;58109;53.570;10.084;2022-07-04T04:45:46;15.73;;;6.37;;
70560;SDS011;58109;53.570;10.084;2022-07-04T04:48:12;11.23;;;6.13;;
70560;SDS011;58109;53.570;10.084;2022-07-04T04:50:37;9.73;;;5.80;;
70560;SDS011;58109;53.570;10.084;2022-07-04T04:53:05;6.90;;;5.50;;
70560;SDS011;58109;53.570;10.084;2022-07-04T04:55:31;8.77;;;5.30;;
70560;SDS011;58109;53.570;10.084;2022-07-04T04:57:56;9.37;;;5.10;;
70560;SDS011;58109;53.570;10.084;2022-07-04T05:00:33;10.30;;;5.30;;
70560;SDS011;58109;53.570;10.084;2022-07-04T05:03:30;9.90;;;6.10;;
70560;SDS011;58109;53.570;10.084;2022-07-04T05:05:56;11.97;;;4.70;;
70560;SDS011;58109;53.570;10.084;2022-07-04T05:08:21;11.27;;;5.27;;
70560;SDS011;58109;53.570;10.084;2022-07-04T05:10:50;11.77;;;4.10;;
70560;SDS011;58109;53.570;10.084;2022-07-04T05:13:16;9.87;;;4.00;;
70560;SDS011;58109;53.570;10.084;2022-07-04T05:15:42;8.50;;;4.80;;
70560;SDS011;58109;53.570;10.084;2022-07-04T05:18:09;6.97;;;4.10;;
70560;SDS011;58109;53.570;10.084;2022-07-04T05:20:37;9.03;;;3.87;;
70560;SDS011;58109;53.570;10.084;2022-07-04T05:23:05;11.40;;;4.03;;
70560;SDS011;58109;53.570;10.084;2022-07-04T05:25:33;8.53;;;4.50;;
70560;SDS011;58109;53.570;10.084;2022-07-04T05:27:59;10.43;;;4.70;;
70560;SDS011;58109;53.570;10.084;2022-07-04T05:30:24;10.10;;;3.80;;
70560;SDS011;58109;53.570;10.084;2022-07-04T05:32:54;8.87;;;4.20;;
70560;SDS011;58109;53.570;10.084;2022-07-04T05:35:23;11.67;;;4.40;;
70560;SDS011;58109;53.570;10.084;2022-07-04T05:37:49;17.50;;;4.77;;
70560;SDS011;58109;53.570;10.084;2022-07-04T05:40:14;5.73;;;4.00;;
70560;SDS011;58109;53.570;10.084;2022-07-04T05:42:40;8.30;;;3.70;;
70560;SDS011;58109;53.570;10.084;2022-07-04T05:45:05;8.70;;;3.50;;
70560;SDS011;58109;53.570;10.084;2022-07-04T05:47:34;6.03;;;3.20;;
70560;SDS011;58109;53.570;10.084;2022-07-04T05:49:59;9.67;;;3.07;;
70560;SDS011;58109;53.570;10.084;2022-07-04T05:52:25;5.17;;;2.90;;
70560;SDS011;58109;53.570;10.084;2022-07-04T05:54:51;8.10;;;2.90;;
70560;SDS011;58109;53.570;10.084;2022-07-04T05:57:16;10.17;;;3.00;;
70560;SDS011;58109;53.570;10.084;2022-07-04T05:59:41;5.90;;;2.70;;
70560;SDS011;58109;53.570;10.084;2022-07-04T06:02:07;4.07;;;2.53;;
70560;SDS011;58109;53.570;10.084;2022-07-04T06:04:32;11.80;;;2.80;;
70560;SDS011;58109;53.570;10.084;2022-07-04T06:06:57;3.50;;;2.60;;
70560;SDS011;58109;53.570;10.084;2022-07-04T06:09:23;8.97;;;2.90;;
70560;SDS011;58109;53.570;10.084;2022-07-04T06:11:48;10.23;;;2.70;;
70560;SDS011;58109;53.570;10.084;2022-07-04T06:14:16;6.47;;;2.43;;
70560;SDS011;58109;53.570;10.084;2022-07-04T06:16:41;11.10;;;2.10;;
70560;SDS011;58109;53.570;10.084;2022-07-04T06:19:07;4.10;;;2.00;;
70560;SDS011;58109;53.570;10.084;2022-07-04T06:21:32;5.00;;;1.73;;
70560;SDS011;58109;53.570;10.084;2022-07-04T06:23:58;15.33;;;2.37;;
70560;SDS011;58109;53.570;10.084;2022-07-04T06:26:26;4.80;;;2.33;;
70560;SDS011;58109;53.570;10.084;2022-07-04T06:28:53;7.17;;;1.80;;
70560;SDS011;58109;53.570;10.084;2022-07-04T06:31:19;7.30;;;1.70;;
70560;SDS011;58109;53.570;10.084;2022-07-04T06:33:44;9.90;;;2.30;;
70560;SDS011;58109;53.570;10.084;2022-07-04T06:36:28;8.50;;;1.90;;
70560;SDS011;58109;53.570;10.084;2022-07-04T06:38:54;6.50;;;1.40;;
70560;SDS011;58109;53.570;10.084;2022-07-04T06:41:21;10.63;;;2.17;;
70560;SDS011;58109;53.570;10.084;2022-07-04T06:43:47;9.87;;;1.90;;
70560;SDS011;58109;53.570;10.084;2022-07-04T06:46:12;10.43;;;1.90;;
70560;SDS011;58109;53.570;10.084;2022-07-04T06:48:38;4.80;;;1.87;;
70560;SDS011;58109;53.570;10.084;2022-07-04T06:51:03;5.30;;;2.10;;
70560;SDS011;58109;53.570;10.084;2022-07-04T06:53:31;12.23;;;1.97;;
70560;SDS011;58109;53.570;10.084;2022-07-04T06:55:56;3.87;;;1.90;;
70560;SDS011;58109;53.570;10.084;2022-07-04T06:58:21;3.60;;;1.80;;
70560;SDS011;58109;53.570;10.084;2022-07-04T07:00:47;8.33;;;2.10;;
70560;SDS011;58109;53.570;10.084;2022-07-04T07:03:13;6.93;;;1.73;;
70560;SDS011;58109;53.570;10.084;2022-07-04T07:06:11;7.90;;;1.70;;
70560;SDS011;58109;53.570;10.084;2022-07-04T07:08:37;6.33;;;1.70;;
70560;SDS011;58109;53.570;10.084;2022-07-04T07:11:02;6.47;;;2.00;;
70560;SDS011;58109;53.570;10.084;2022-07-04T07:13:42;4.73;;;1.70;;
70560;SDS011;58109;53.570;10.084;2022-07-04T07:16:09;4.90;;;2.03;;
70560;SDS011;58109;53.570;10.084;2022-07-04T07:18:35;6.73;;;1.70;;
70560;SDS011;58109;53.570;10.084;2022-07-04T07:21:03;5.93;;;1.77;;
70560;SDS011;58109;53.570;10.084;2022-07-04T07:23:33;2.77;;;1.63;;
70560;SDS011;58109;53.570;10.084;2022-07-04T07:25:58;4.13;;;1.27;;
70560;SDS011;58109;53.570;10.084;2022-07-04T07:28:26;7.37;;;1.80;;
70560;SDS011;58109;53.570;10.084;2022-07-04T07:30:51;3.80;;;1.60;;
70560;SDS011;58109;53.570;10.084;2022-07-04T07:33:17;7.60;;;1.80;;
70560;SDS011;58109;53.570;10.084;2022-07-04T07:35:42;3.13;;;1.43;;
70560;SDS011;58109;53.570;10.084;2022-07-04T07:38:08;6.40;;;1.47;;
70560;SDS011;58109;53.570;10.084;2022-07-04T07:40:33;10.97;;;2.00;;
70560;SDS011;58109;53.570;10.084;2022-07-04T07:42:59;7.10;;;1.53;;
70560;SDS011;58109;53.570;10.084;2022-07-04T07:45:24;2.63;;;1.47;;
70560;SDS011;58109;53.570;10.084;2022-07-04T07:47:50;5.50;;;1.37;;
70560;SDS011;58109;53.570;10.084;2022-07-04T07:50:15;9.10;;;1.73;;
70560;SDS011;58109;53.570;10.084;2022-07-04T07:52:40;3.83;;;1.20;;
70560;SDS011;58109;53.570;10.084;2022-07-04T07:55:08;7.30;;;1.67;;
70560;SDS011;58109;53.570;10.084;2022-07-04T07:57:33;4.33;;;1.30;;
70560;SDS011;58109;53.570;10.084;2022-07-04T07:59:59;10.07;;;1.70;;
70560;SDS011;58109;53.570;10.084;2022-07-04T08:02:29;4.63;;;1.90;;
70560;SDS011;58109;53.570;10.084;2022-07-04T08:05:13;11.07;;;1.90;;
70560;SDS011;58109;53.570;10.084;2022-07-04T08:07:43;2.83;;;1.33;;
70560;SDS011;58109;53.570;10.084;2022-07-04T08:10:11;3.63;;;1.33;;
70560;SDS011;58109;53.570;10.084;2022-07-04T08:12:36;3.40;;;1.50;;
70560;SDS011;58109;53.570;10.084;2022-07-04T08:15:02;6.37;;;1.27;;
70560;SDS011;58109;53.570;10.084;2022-07-04T08:17:31;3.97;;;1.17;;
70560;SDS011;58109;53.570;10.084;2022-07-04T08:19:56;3.00;;;1.07;;
70560;SDS011;58109;53.570;10.084;2022-07-04T08:22:24;3.33;;;1.33;;
70560;SDS011;58109;53.570;10.084;2022-07-04T08:24:50;3.57;;;1.20;;
70560;SDS011;58109;53.570;10.084;2022-07-04T08:27:15;8.20;;;1.30;;
70560;SDS011;58109;53.570;10.084;2022-07-04T08:29:43;5.33;;;1.27;;
70560;SDS011;58109;53.570;10.084;2022-07-04T08:32:08;2.87;;;1.10;;
70560;SDS011;58109;53.570;10.084;2022-07-04T08:34:34;3.17;;;1.20;;
70560;SDS011;58109;53.570;10.084;2022-07-04T08:36:59;2.50;;;1.20;;
70560;SDS011;58109;53.570;10.084;2022-07-04T08:39:28;5.07;;;1.63;;
70560;SDS011;58109;53.570;10.084;2022-07-04T08:41:58;4.13;;;1.30;;
70560;SDS011;58109;53.570;10.084;2022-07-04T08:44:27;6.13;;;1.27;;
70560;SDS011;58109;53.570;10.084;2022-07-04T08:46:55;7.23;;;1.10;;
70560;SDS011;58109;53.570;10.084;2022-07-04T08:49:21;3.40;;;1.27;;
70560;SDS011;58109;53.570;10.084;2022-07-04T08:51:52;4.20;;;1.23;;
70560;SDS011;58109;53.570;10.084;2022-07-04T08:54:21;3.50;;;1.07;;
70560;SDS011;58109;53.570;10.084;2022-07-04T08:57:08;5.00;;;1.50;;
70560;SDS011;58109;53.570;10.084;2022-07-04T08:59:53;7.83;;;1.23;;
70560;SDS011;58109;53.570;10.084;2022-07-04T09:02:21;5.40;;;1.20;;
70560;SDS011;58109;53.570;10.084;2022-07-04T09:04:49;5.83;;;1.07;;
70560;SDS011;58109;53.570;10.084;2022-07-04T09:07:15;3.87;;;1.17;;
70560;SDS011;58109;53.570;10.084;2022-07-04T09:09:43;1.33;;;1.00;;
70560;SDS011;58109;53.570;10.084;2022-07-04T09:12:14;2.63;;;1.03;;
70560;SDS011;58109;53.570;10.084;2022-07-04T09:14:40;3.57;;;1.20;;
70560;SDS011;58109;53.570;10.084;2022-07-04T09:17:05;3.87;;;1.20;;
70560;SDS011;58109;53.570;10.084;2022-07-04T09:19:34;4.00;;;1.43;;
70560;SDS011;58109;53.570;10.084;2022-07-04T09:22:03;2.73;;;1.00;;
70560;SDS011;58109;53.570;10.084;2022-07-04T09:27:18;2.50;;;0.87;;
70560;SDS011;58109;53.570;10.084;2022-07-04T09:29:56;5.60;;;0.93;;
70560;SDS011;58109;53.570;10.084;2022-07-04T09:32:34;2.40;;;1.00;;
70560;SDS011;58109;53.570;10.084;2022-07-04T09:35:19;6.80;;;1.40;;
70560;SDS011;58109;53.570;10.084;2022-07-04T09:37:55;2.70;;;1.20;;
70560;SDS011;58109;53.570;10.084;2022-07-04T09:42:58;4.83;;;1.30;;
70560;SDS011;58109;53.570;10.084;2022-07-04T09:45:28;2.87;;;1.93;;
70560;SDS011;58109;53.570;10.084;2022-07-04T09:47:57;2.13;;;1.20;;
70560;SDS011;58109;53.570;10.084;2022-07-04T09:50:27;3.27;;;1.10;;
70560;SDS011;58109;53.570;10.084;2022-07-04T09:57:46;2.60;;;1.20;;
70560;SDS011;58109;53.570;10.084;2022-07-04T10:02:44;3.77;;;0.90;;
70560;SDS011;58109;53.570;10.084;2022-07-04T10:05:14;2.00;;;0.90;;
70560;SDS011;58109;53.570;10.084;2022-07-04T10:07:46;1.37;;;0.80;;
70560;SDS011;58109;53.570;10.084;2022-07-04T10:10:47;5.40;;;1.17;;
70560;SDS011;58109;53.570;10.084;2022-07-04T10:13:08;1.40;;;0.80;;
70560;SDS011;58109;53.570;10.084;2022-07-04T10:15:37;1.67;;;1.03;;
70560;SDS011;58109;53.570;10.084;2022-07-04T10:18:07;8.00;;;1.70;;
70560;SDS011;58109;53.570;10.084;2022-07-04T10:20:36;3.97;;;1.20;;
70560;SDS011;58109;53.570;10.084;2022-07-04T10:23:04;2.60;;;1.10;;
70560;SDS011;58109;53.570;10.084;2022-07-04T10:25:29;2.20;;;1.03;;
70560;SDS011;58109;53.570;10.084;2022-07-04T10:27:57;6.97;;;1.10;;
70560;SDS011;58109;53.570;10.084;2022-07-04T10:30:26;1.00;;;0.90;;
70560;SDS011;58109;53.570;10.084;2022-07-04T10:32:53;2.87;;;0.80;;
70560;SDS011;58109;53.570;10.084;2022-07-04T10:40:51;2.40;;;0.90;;
70560;SDS011;58109;53.570;10.084;2022-07-04T10:45:51;1.90;;;1.00;;
70560;SDS011;58109;53.570;10.084;2022-07-04T10:48:24;3.90;;;1.27;;
70560;SDS011;58109;53.570;10.084;2022-07-04T10:51:02;5.13;;;1.07;;
70560;SDS011;58109;53.570;10.084;2022-07-04T10:53:30;4.00;;;1.10;;
70560;SDS011;58109;53.570;10.084;2022-07-04T10:58:51;17.73;;;1.17;;
70560;SDS011;58109;53.570;10.084;2022-07-04T11:01:17;4.67;;;0.97;;
70560;SDS011;58109;53.570;10.084;2022-07-04T11:03:53;3.23;;;1.00;;
70560;SDS011;58109;53.570;10.084;2022-07-04T11:16:58;12.63;;;1.10;;
70560;SDS011;58109;53.570;10.084;2022-07-04T11:19:24;3.67;;;1.17;;
70560;SDS011;58109;53.570;10.084;2022-07-04T11:21:49;3.90;;;0.90;;
70560;SDS011;58109;53.570;10.084;2022-07-04T11:24:15;9.73;;;1.50;;
70560;SDS011;58109;53.570;10.084;2022-07-04T11:26:40;1.20;;;0.87;;
70560;SDS011;58109;53.570;10.084;2022-07-04T11:29:08;3.60;;;1.13;;
70560;SDS011;58109;53.570;10.084;2022-07-04T11:31:37;2.53;;;1.50;;
70560;SDS011;58109;53.570;10.084;2022-07-04T11:34:03;1.50;;;0.90;;
70560;SDS011;58109;53.570;10.084;2022-07-04T11:36:29;2.90;;;1.30;;
70560;SDS011;58109;53.570;10.084;2022-07-04T11:38:55;8.93;;;1.30;;
70560;SDS011;58109;53.570;10.084;2022-07-04T11:41:22;4.37;;;1.17;;
70560;SDS011;58109;53.570;10.084;2022-07-04T11:44:11;1.50;;;0.90;;
70560;SDS011;58109;53.570;10.084;2022-07-04T11:50:00;3.33;;;0.90;;
70560;SDS011;58109;53.570;10.084;2022-07-04T11:52:39;3.67;;;0.87;;
70560;SDS011;58109;53.570;10.084;2022-07-04T11:55:07;1.50;;;0.80;;
70560;SDS011;58109;53.570;10.084;2022-07-04T11:57:37;2.03;;;0.93;;
70560;SDS011;58109;53.570;10.084;2022-07-04T12:00:07;3.23;;;1.00;;
70560;SDS011;58109;53.570;10.084;2022-07-04T12:02:34;1.67;;;1.00;;
70560;SDS011;58109;53.570;10.084;2022-07-04T12:05:00;3.90;;;1.03;;
70560;SDS011;58109;53.570;10.084;2022-07-04T12:07:27;8.43;;;0.93;;
70560;SDS011;58109;53.570;10.084;2022-07-04T12:09:57;3.03;;;0.90;;
70560;SDS011;58109;53.570;10.084;2022-07-04T12:12:33;4.13;;;1.10;;
70560;SDS011;58109;53.570;10.084;2022-07-04T12:15:05;5.77;;;1.20;;
70560;SDS011;58109;53.570;10.084;2022-07-04T12:20:02;4.73;;;1.13;;
70560;SDS011;58109;53.570;10.084;2022-07-04T12:22:39;3.50;;;1.00;;
70560;SDS011;58109;53.570;10.084;2022-07-04T12:25:19;2.30;;;1.07;;
70560;SDS011;58109;53.570;10.084;2022-07-04T12:30:20;2.23;;;1.20;;
70560;SDS011;58109;53.570;10.084;2022-07-04T12:32:47;1.23;;;0.90;;
70560;SDS011;58109;53.570;10.084;2022-07-04T12:38:50;4.10;;;1.10;;
70560;SDS011;58109;53.570;10.084;2022-07-04T12:43:22;3.23;;;1.20;;
70560;SDS011;58109;53.570;10.084;2022-07-04T12:45:50;4.40;;;1.43;;
70560;SDS011;58109;53.570;10.084;2022-07-04T12:48:20;1.90;;;1.17;;
70560;SDS011;58109;53.570;10.084;2022-07-04T12:50:48;3.43;;;1.30;;
70560;SDS011;58109;53.570;10.084;2022-07-04T12:53:13;9.00;;;1.40;;
70560;SDS011;58109;53.570;10.084;2022-07-04T12:55:42;3.83;;;1.13;;
70560;SDS011;58109;53.570;10.084;2022-07-04T12:58:09;3.43;;;1.17;;
70560;SDS011;58109;53.570;10.084;2022-07-04T13:00:35;3.53;;;1.00;;
70560;SDS011;58109;53.570;10.084;2022-07-04T13:03:01;6.23;;;1.60;;
70560;SDS011;58109;53.570;10.084;2022-07-04T13:05:26;2.53;;;1.00;;
70560;SDS011;58109;53.570;10.084;2022-07-04T13:07:57;6.00;;;3.30;;
70560;SDS011;58109;53.570;10.084;2022-07-04T13:10:23;12.27;;;6.50;;
70560;SDS011;58109;53.570;10.084;2022-07-04T13:12:48;13.90;;;5.07;;
70560;SDS011;58109;53.570;10.084;2022-07-04T13:15:16;10.23;;;4.00;;
70560;SDS011;58109;53.570;10.084;2022-07-04T13:17:45;4.27;;;1.60;;
70560;SDS011;58109;53.570;10.084;2022-07-04T13:20:10;7.10;;;1.50;;
70560;SDS011;58109;53.570;10.084;2022-07-04T13:22:37;3.50;;;1.00;;
70560;SDS011;58109;53.570;10.084;2022-07-04T13:25:03;3.70;;;0.90;;
70560;SDS011;58109;53.570;10.084;2022-07-04T13:27:32;3.07;;;0.90;;
70560;SDS011;58109;53.570;10.084;2022-07-04T13:29:58;4.20;;;1.60;;
70560;SDS011;58109;53.570;10.084;2022-07-04T13:32:28;4.20;;;1.20;;
70560;SDS011;58109;53.570;10.084;2022-07-04T13:34:53;1.83;;;1.23;;
70560;SDS011;58109;53.570;10.084;2022-07-04T13:37:19;4.67;;;1.17;;
70560;SDS011;58109;53.570;10.084;2022-07-04T13:39:44;5.67;;;1.40;;
70560;SDS011;58109;53.570;10.084;2022-07-04T13:42:10;9.70;;;1.33;;
70560;SDS011;58109;53.570;10.084;2022-07-04T13:44:36;2.87;;;1.53;;
70560;SDS011;58109;53.570;10.084;2022-07-04T13:47:01;4.20;;;1.00;;
70560;SDS011;58109;53.570;10.084;2022-07-04T13:49:29;5.40;;;2.23;;
70560;SDS011;58109;53.570;10.084;2022-07-04T13:51:59;4.90;;;1.80;;
70560;SDS011;58109;53.570;10.084;2022-07-04T13:54:26;5.87;;;1.50;;
70560;SDS011;58109;53.570;10.084;2022-07-04T13:56:52;5.60;;;1.07;;
70560;SDS011;58109;53.570;10.084;2022-07-04T13:59:22;15.20;;;4.40;;
70560;SDS011;58109;53.570;10.084;2022-07-04T14:01:49;4.33;;;1.87;;
70560;SDS011;58109;53.570;10.084;2022-07-04T14:04:21;20.33;;;6.70;;
70560;SDS011;58109;53.570;10.084;2022-07-04T14:06:49;10.27;;;4.90;;
70560;SDS011;58109;53.570;10.084;2022-07-04T14:09:15;4.33;;;1.57;;
70560;SDS011;58109;53.570;10.084;2022-07-04T14:11:40;7.33;;;1.37;;
70560;SDS011;58109;53.570;10.084;2022-07-04T14:14:06;3.87;;;1.37;;
70560;SDS011;58109;53.570;10.084;2022-07-04T14:16:34;3.00;;;1.10;;
70560;SDS011;58109;53.570;10.084;2022-07-04T14:19:02;3.03;;;1.40;;
70560;SDS011;58109;53.570;10.084;2022-07-04T14:21:27;5.13;;;1.50;;
70560;SDS011;58109;53.570;10.084;2022-07-04T14:23:53;7.93;;;1.60;;
70560;SDS011;58109;53.570;10.084;2022-07-04T14:26:20;5.03;;;1.40;;
70560;SDS011;58109;53.570;10.084;2022-07-04T14:28:49;6.00;;;1.63;;
70560;SDS011;58109;53.570;10.084;2022-07-04T14:31:15;10.03;;;1.67;;
70560;SDS011;58109;53.570;10.084;2022-07-04T14:33:40;3.67;;;2.13;;
70560;SDS011;58109;53.570;10.084;2022-07-04T14:36:06;6.23;;;1.63;;
70560;SDS011;58109;53.570;10.084;2022-07-04T14:38:32;2.33;;;1.33;;
70560;SDS011;58109;53.570;10.084;2022-07-04T14:40:58;4.33;;;1.20;;
70560;SDS011;58109;53.570;10.084;2022-07-04T14:43:34;5.47;;;1.30;;
70560;SDS011;58109;53.570;10.084;2022-07-04T14:46:01;6.63;;;1.60;;
70560;SDS011;58109;53.570;10.084;2022-07-04T14:48:28;5.53;;;1.77;;
70560;SDS011;58109;53.570;10.084;2022-07-04T14:50:54;8.57;;;3.93;;
70560;SDS011;58109;53.570;10.084;2022-07-04T14:53:19;10.10;;;1.40;;
70560;SDS011;58109;53.570;10.084;2022-07-04T14:55:46;5.30;;;1.30;;
70560;SDS011;58109;53.570;10.084;2022-07-04T14:58:13;3.40;;;1.10;;
70560;SDS011;58109;53.570;10.084;2022-07-04T15:00:39;5.93;;;1.50;;
70560;SDS011;58109;53.570;10.084;2022-07-04T15:03:04;6.47;;;1.30;;
70560;SDS011;58109;53.570;10.084;2022-07-04T15:05:30;7.03;;;1.20;;
70560;SDS011;58109;53.570;10.084;2022-07-04T15:07:55;6.20;;;1.60;;
70560;SDS011;58109;53.570;10.084;2022-07-04T15:10:22;5.73;;;1.53;;
70560;SDS011;58109;53.570;10.084;2022-07-04T15:12:50;4.73;;;1.67;;
70560;SDS011;58109;53.570;10.084;2022-07-04T15:15:16;6.57;;;1.70;;
70560;SDS011;58109;53.570;10.084;2022-07-04T15:17:45;6.10;;;1.70;;
70560;SDS011;58109;53.570;10.084;2022-07-04T15:20:11;3.10;;;1.30;;
70560;SDS011;58109;53.570;10.084;2022-07-04T15:22:58;5.03;;;1.50;;